Time;durP1;ratioP1;P1;durP2;ratioP2;P2;SDS_P1;SDS_P2;PMS_P1;PMS_P2;Temp;Humidity;BMP_temperature;BMP_pressure;BME280_temperature;BME280_humidity;BME280_pressure;Samples;Min_cycle;Max_cycle;Signal;HPM_P1;HPM_P2
2023/08/18 00:01:36;;;;;;;3.40;3.20;;;;;;;;;;5065346;28;20210;-67
2023/08/18 00:04:02;;;;;;;4.30;3.78;;;;;;;;;;5064247;28;20213;-67
2023/08/18 00:06:29;;;;;;;8.10;4.07;;;;;;;;;;5065699;28;20245;-69
2023/08/18 00:08:56;;;;;;;5.00;4.13;;;;;;;;;;5064520;28;20682;-67
2023/08/18 00:11:22;;;;;;;4.90;4.28;;;;;;;;;;5065230;28;20281;-68
2023/08/18 00:13:50;;;;;;;4.40;4.00;;;;;;;;;;5064783;28;20194;-67
2023/08/18 00:16:16;;;;;;;5.68;4.50;;;;;;;;;;5062898;28;20326;-68
2023/08/18 00:18:43;;;;;;;7.88;3.88;;;;;;;;;;5062208;28;20210;-68
2023/08/18 00:21:09;;;;;;;6.32;3.90;;;;;;;;;;5063812;28;20284;-68
2023/08/18 00:23:36;;;;;;;4.78;4.13;;;;;;;;;;5065250;28;20206;-68
2023/08/18 00:26:03;;;;;;;4.20;3.90;;;;;;;;;;5065122;28;20307;-67
2023/08/18 00:28:29;;;;;;;5.35;3.88;;;;;;;;;;5064549;28;20672;-70
2023/08/18 00:30:57;;;;;;;7.53;3.92;;;;;;;;;;5064889;28;20203;-67
2023/08/18 00:33:24;;;;;;;3.97;3.67;;;;;;;;;;5064593;28;20236;-68
2023/08/18 00:35:50;;;;;;;6.85;4.22;;;;;;;;;;5064008;28;20229;-66
2023/08/18 00:38:16;;;;;;;3.85;3.65;;;;;;;;;;5063983;28;20264;-67
2023/08/18 00:40:43;;;;;;;5.07;3.83;;;;;;;;;;5063979;28;20263;-67
2023/08/18 00:43:09;;;;;;;7.03;4.25;;;;;;;;;;5064734;28;20307;-67
2023/08/18 00:45:36;;;;;;;8.48;4.05;;;;;;;;;;5063515;28;20676;-67
2023/08/18 00:48:04;;;;;;;5.88;3.83;;;;;;;;;;5063726;28;20234;-66
2023/08/18 00:50:31;;;;;;;4.28;3.58;;;;;;;;;;5064196;28;20252;-67
2023/08/18 00:52:58;;;;;;;5.32;3.80;;;;;;;;;;5062427;28;20230;-66
2023/08/18 00:55:24;;;;;;;5.78;3.45;;;;;;;;;;5063182;28;20276;-66
2023/08/18 00:57:51;;;;;;;4.97;3.85;;;;;;;;;;5062156;28;20229;-65
2023/08/18 01:00:18;;;;;;;10.05;3.55;;;;;;;;;;5062266;28;20921;-66
2023/08/18 01:02:45;;;;;;;6.70;3.55;;;;;;;;;;5061962;28;20202;-68
2023/08/18 01:05:13;;;;;;;4.90;3.90;;;;;;;;;;5062262;28;22356;-66
2023/08/18 01:07:39;;;;;;;6.18;3.80;;;;;;;;;;5062634;28;20246;-67
2023/08/18 01:10:06;;;;;;;4.40;3.78;;;;;;;;;;5062999;28;20275;-67
2023/08/18 01:12:40;;;;;;;9.05;4.22;;;;;;;;;;5062231;28;21228;-67
2023/08/18 01:15:13;;;;;;;3.83;3.53;;;;;;;;;;5062351;28;20260;-65
2023/08/18 01:17:43;;;;;;;4.47;4.15;;;;;;;;;;5063281;28;20664;-66
2023/08/18 01:20:10;;;;;;;6.65;4.05;;;;;;;;;;5062598;28;20696;-66
2023/08/18 01:22:40;;;;;;;4.53;4.13;;;;;;;;;;5065772;28;20206;-66
2023/08/18 01:25:08;;;;;;;6.97;4.05;;;;;;;;;;5067971;28;20283;-67
2023/08/18 01:27:35;;;;;;;6.30;4.45;;;;;;;;;;5068560;28;20218;-66
2023/08/18 01:30:02;;;;;;;4.15;3.95;;;;;;;;;;5068670;28;20287;-66
2023/08/18 01:32:29;;;;;;;5.38;4.30;;;;;;;;;;5067748;28;20301;-66
2023/08/18 01:34:56;;;;;;;4.63;4.15;;;;;;;;;;5068667;28;20236;-65
2023/08/18 01:37:23;;;;;;;4.70;4.30;;;;;;;;;;5067387;28;20641;-68
2023/08/18 01:39:50;;;;;;;4.82;4.05;;;;;;;;;;5067022;28;20255;-65
2023/08/18 01:42:18;;;;;;;7.45;4.15;;;;;;;;;;5066624;28;20230;-66
2023/08/18 01:44:44;;;;;;;8.68;4.75;;;;;;;;;;5066569;28;20206;-65
2023/08/18 01:47:11;;;;;;;4.57;4.03;;;;;;;;;;5066921;28;20279;-67
2023/08/18 01:49:37;;;;;;;6.68;4.63;;;;;;;;;;5067756;28;20331;-67
2023/08/18 01:52:04;;;;;;;4.63;4.25;;;;;;;;;;5066839;28;20287;-66
2023/08/18 01:54:30;;;;;;;6.07;4.72;;;;;;;;;;5066793;28;20249;-67
2023/08/18 01:56:57;;;;;;;4.13;3.78;;;;;;;;;;5066319;28;20725;-67
2023/08/18 01:59:25;;;;;;;4.93;4.50;;;;;;;;;;5067409;28;20218;-67
2023/08/18 02:01:51;;;;;;;4.72;4.15;;;;;;;;;;5067084;28;20229;-66
2023/08/18 02:04:18;;;;;;;5.63;4.13;;;;;;;;;;5067630;28;20256;-67
2023/08/18 02:06:44;;;;;;;4.63;4.32;;;;;;;;;;5066658;28;20241;-66
2023/08/18 02:09:11;;;;;;;4.38;4.13;;;;;;;;;;5066074;28;20272;-68
2023/08/18 02:11:37;;;;;;;5.65;4.93;;;;;;;;;;5067136;28;20226;-68
2023/08/18 02:14:04;;;;;;;4.93;4.50;;;;;;;;;;5065907;28;20206;-68
2023/08/18 02:16:31;;;;;;;4.65;4.25;;;;;;;;;;5066724;28;20230;-67
2023/08/18 02:18:59;;;;;;;6.72;4.82;;;;;;;;;;5065989;28;20256;-66
2023/08/18 02:21:30;;;;;;;7.50;4.80;;;;;;;;;;5066500;28;20296;-67
2023/08/18 02:23:57;;;;;;;10.50;4.82;;;;;;;;;;5066617;28;20692;-67
2023/08/18 02:26:24;;;;;;;5.47;4.88;;;;;;;;;;5067063;28;20202;-66
2023/08/18 02:28:50;;;;;;;4.88;4.50;;;;;;;;;;5066386;28;20295;-67
2023/08/18 02:31:17;;;;;;;8.75;5.18;;;;;;;;;;5066693;28;20720;-67
2023/08/18 02:33:44;;;;;;;6.13;4.72;;;;;;;;;;5064719;28;20261;-67
2023/08/18 02:36:12;;;;;;;4.78;3.70;;;;;;;;;;5066907;28;20264;-67
2023/08/18 02:38:38;;;;;;;4.57;4.18;;;;;;;;;;5066305;28;20270;-66
2023/08/18 02:41:05;;;;;;;11.10;5.03;;;;;;;;;;5066733;28;20251;-65
2023/08/18 02:43:31;;;;;;;6.95;5.53;;;;;;;;;;5065662;28;20222;-66
2023/08/18 02:45:58;;;;;;;5.50;4.40;;;;;;;;;;5065748;28;20635;-66
2023/08/18 02:48:26;;;;;;;6.55;4.68;;;;;;;;;;5065016;28;20272;-66
2023/08/18 02:51:01;;;;;;;5.07;4.57;;;;;;;;;;5065910;28;20198;-66
2023/08/18 02:53:29;;;;;;;5.10;4.60;;;;;;;;;;5063906;28;20218;-66
2023/08/18 02:55:56;;;;;;;8.13;5.00;;;;;;;;;;5063921;28;20726;-67
2023/08/18 02:58:23;;;;;;;6.10;5.53;;;;;;;;;;5064696;28;20202;-66
2023/08/18 03:00:49;;;;;;;7.07;4.35;;;;;;;;;;5063760;28;20260;-65
2023/08/18 03:03:15;;;;;;;6.05;5.45;;;;;;;;;;5064401;28;20281;-66
2023/08/18 03:05:42;;;;;;;8.18;5.18;;;;;;;;;;5065161;28;20203;-66
2023/08/18 03:08:10;;;;;;;8.40;5.18;;;;;;;;;;5065496;28;20238;-66
2023/08/18 03:10:38;;;;;;;5.60;5.10;;;;;;;;;;5065081;28;20214;-66
2023/08/18 03:13:05;;;;;;;5.22;4.43;;;;;;;;;;5064931;28;20309;-67
2023/08/18 03:15:31;;;;;;;12.07;5.00;;;;;;;;;;5064880;28;21274;-67
2023/08/18 03:17:58;;;;;;;6.70;5.43;;;;;;;;;;5065360;28;20214;-66
2023/08/18 03:20:24;;;;;;;5.80;5.28;;;;;;;;;;5066037;28;20221;-65
2023/08/18 03:22:52;;;;;;;5.43;5.13;;;;;;;;;;5066620;28;20222;-66
2023/08/18 03:25:18;;;;;;;7.75;5.50;;;;;;;;;;5066528;28;20289;-66
2023/08/18 03:27:47;;;;;;;5.60;5.10;;;;;;;;;;5065952;28;20234;-66
2023/08/18 03:30:14;;;;;;;8.10;4.53;;;;;;;;;;5065470;28;20202;-66
2023/08/18 03:32:40;;;;;;;5.20;4.70;;;;;;;;;;5066070;28;20198;-66
2023/08/18 03:35:07;;;;;;;5.65;5.00;;;;;;;;;;5065291;28;20708;-65
2023/08/18 03:37:33;;;;;;;5.28;4.88;;;;;;;;;;5065553;28;20322;-65
2023/08/18 03:40:03;;;;;;;6.03;4.72;;;;;;;;;;5065161;28;20733;-66
2023/08/18 03:42:29;;;;;;;5.80;5.22;;;;;;;;;;5065848;28;20226;-66
2023/08/18 03:44:57;;;;;;;5.60;5.03;;;;;;;;;;5065168;28;20198;-65
2023/08/18 03:47:23;;;;;;;7.97;5.70;;;;;;;;;;5065986;28;20920;-66
2023/08/18 03:49:50;;;;;;;5.25;4.85;;;;;;;;;;5065441;28;20271;-66
2023/08/18 03:52:16;;;;;;;7.20;4.40;;;;;;;;;;5065396;28;20257;-65
2023/08/18 03:54:43;;;;;;;5.10;4.70;;;;;;;;;;5064863;28;20210;-67
2023/08/18 03:57:09;;;;;;;6.05;5.28;;;;;;;;;;5065163;28;20206;-66
2023/08/18 03:59:35;;;;;;;5.57;5.00;;;;;;;;;;5064751;28;20207;-68
2023/08/18 04:02:03;;;;;;;11.18;5.38;;;;;;;;;;5064929;28;20210;-67
2023/08/18 04:04:30;;;;;;;6.70;5.13;;;;;;;;;;5064886;28;20202;-67
2023/08/18 04:06:56;;;;;;;5.55;4.97;;;;;;;;;;5065392;28;20230;-66
2023/08/18 04:09:23;;;;;;;8.18;5.55;;;;;;;;;;5064633;28;20203;-65
2023/08/18 04:11:49;;;;;;;6.07;5.38;;;;;;;;;;5064824;28;20202;-67
2023/08/18 04:14:16;;;;;;;11.07;5.53;;;;;;;;;;5063827;28;20210;-67
2023/08/18 04:16:44;;;;;;;7.43;5.40;;;;;;;;;;5064961;28;20248;-68
2023/08/18 04:19:12;;;;;;;6.55;4.70;;;;;;;;;;5065869;28;20259;-67
2023/08/18 04:21:39;;;;;;;5.30;4.55;;;;;;;;;;5065034;28;20672;-68
2023/08/18 04:24:05;;;;;;;5.85;5.35;;;;;;;;;;5064288;28;20238;-68
2023/08/18 04:26:34;;;;;;;8.25;5.28;;;;;;;;;;5064634;28;20205;-65
2023/08/18 04:29:01;;;;;;;10.68;5.25;;;;;;;;;;5064782;28;20221;-67
2023/08/18 04:31:27;;;;;;;8.52;5.18;;;;;;;;;;5064850;28;20688;-66
2023/08/18 04:33:54;;;;;;;5.22;4.75;;;;;;;;;;5064516;28;20198;-68
2023/08/18 04:36:22;;;;;;;5.30;4.88;;;;;;;;;;5064346;28;20339;-66
2023/08/18 04:38:48;;;;;;;5.47;4.97;;;;;;;;;;5063867;28;20198;-68
2023/08/18 04:41:15;;;;;;;6.32;5.60;;;;;;;;;;5064992;28;20226;-68
2023/08/18 04:43:41;;;;;;;6.10;5.57;;;;;;;;;;5064958;28;20198;-68
2023/08/18 04:46:08;;;;;;;5.80;5.20;;;;;;;;;;5063281;28;20677;-68
2023/08/18 04:48:35;;;;;;;5.93;5.43;;;;;;;;;;5064422;28;20719;-67
2023/08/18 04:51:01;;;;;;;5.50;5.10;;;;;;;;;;5063870;28;20210;-66
2023/08/18 04:53:29;;;;;;;7.45;5.05;;;;;;;;;;5063096;28;20260;-68
2023/08/18 04:55:55;;;;;;;5.43;4.75;;;;;;;;;;5064042;28;20238;-66
2023/08/18 04:58:22;;;;;;;5.07;4.30;;;;;;;;;;5076109;28;20198;-67
2023/08/18 05:00:48;;;;;;;8.13;5.30;;;;;;;;;;5066358;28;20198;-68
2023/08/18 05:03:15;;;;;;;7.85;5.47;;;;;;;;;;5063832;28;20207;-67
2023/08/18 05:05:46;;;;;;;7.72;5.40;;;;;;;;;;5062336;28;20294;-68
2023/08/18 05:08:13;;;;;;;7.63;6.30;;;;;;;;;;5064725;28;20370;-67
2023/08/18 05:10:40;;;;;;;8.52;5.20;;;;;;;;;;5062982;28;20222;-68
2023/08/18 05:13:07;;;;;;;19.52;6.15;;;;;;;;;;5062143;28;20234;-69
2023/08/18 05:15:34;;;;;;;5.45;5.07;;;;;;;;;;5062381;28;20210;-67
2023/08/18 05:18:01;;;;;;;8.95;4.97;;;;;;;;;;5062972;28;20198;-68
2023/08/18 05:20:27;;;;;;;5.30;4.82;;;;;;;;;;5064632;28;20213;-67
2023/08/18 05:22:54;;;;;;;5.10;4.47;;;;;;;;;;5063586;28;20694;-68
2023/08/18 05:25:20;;;;;;;5.90;5.20;;;;;;;;;;5063656;28;20237;-68
2023/08/18 05:27:48;;;;;;;13.15;5.68;;;;;;;;;;5063754;28;20707;-68
2023/08/18 05:30:15;;;;;;;11.68;5.38;;;;;;;;;;5065858;28;20230;-69
2023/08/18 05:32:41;;;;;;;8.82;5.65;;;;;;;;;;5063344;28;20264;-68
2023/08/18 05:35:10;;;;;;;5.40;4.68;;;;;;;;;;5065006;28;20918;-67
2023/08/18 05:37:36;;;;;;;10.10;5.05;;;;;;;;;;5064545;28;20204;-67
2023/08/18 05:40:03;;;;;;;5.97;4.47;;;;;;;;;;5064376;28;20202;-68
2023/08/18 05:42:29;;;;;;;8.38;4.95;;;;;;;;;;5064087;28;20249;-68
2023/08/18 05:44:57;;;;;;;8.95;4.30;;;;;;;;;;5064661;28;20203;-67
2023/08/18 05:47:23;;;;;;;10.00;5.05;;;;;;;;;;5064309;28;20234;-67
2023/08/18 05:49:50;;;;;;;5.82;4.57;;;;;;;;;;5063405;28;20251;-67
2023/08/18 05:52:16;;;;;;;8.40;4.80;;;;;;;;;;5063506;28;20226;-66
2023/08/18 05:54:43;;;;;;;5.25;4.75;;;;;;;;;;5062780;28;20202;-68
2023/08/18 05:57:09;;;;;;;7.53;5.00;;;;;;;;;;5063055;28;20240;-67
2023/08/18 05:59:36;;;;;;;4.95;4.32;;;;;;;;;;5064177;28;20234;-70
2023/08/18 06:02:04;;;;;;;5.07;4.60;;;;;;;;;;5063531;28;20206;-67
2023/08/18 06:04:30;;;;;;;10.57;5.60;;;;;;;;;;5064002;28;20224;-67
2023/08/18 06:06:57;;;;;;;9.57;5.00;;;;;;;;;;5063204;28;20226;-67
2023/08/18 06:09:24;;;;;;;5.80;4.93;;;;;;;;;;5065812;28;20648;-69
2023/08/18 06:11:50;;;;;;;5.43;4.85;;;;;;;;;;5067499;28;20198;-67
2023/08/18 06:14:16;;;;;;;14.82;5.32;;;;;;;;;;5067770;28;20256;-66
2023/08/18 06:16:43;;;;;;;4.95;4.28;;;;;;;;;;5068575;28;20310;-68
2023/08/18 06:19:12;;;;;;;5.70;5.20;;;;;;;;;;5067825;28;20233;-68
2023/08/18 06:21:38;;;;;;;7.80;4.95;;;;;;;;;;5066374;28;20245;-67
2023/08/18 06:24:05;;;;;;;8.75;5.15;;;;;;;;;;5067740;28;20194;-67
2023/08/18 06:26:32;;;;;;;5.75;4.72;;;;;;;;;;5067697;28;20630;-69
2023/08/18 06:28:58;;;;;;;7.07;4.32;;;;;;;;;;5067951;28;21013;-68
2023/08/18 06:31:25;;;;;;;5.28;3.83;;;;;;;;;;5066787;28;20206;-68
2023/08/18 06:33:51;;;;;;;4.55;4.13;;;;;;;;;;5065807;28;20198;-68
2023/08/18 06:36:19;;;;;;;5.63;4.25;;;;;;;;;;5067450;28;20762;-68
2023/08/18 06:38:45;;;;;;;5.53;4.45;;;;;;;;;;5068275;28;20202;-69
2023/08/18 06:41:12;;;;;;;6.53;4.03;;;;;;;;;;5066931;28;20766;-67
2023/08/18 06:43:38;;;;;;;4.72;3.85;;;;;;;;;;5066686;28;20241;-66
2023/08/18 06:46:05;;;;;;;7.55;4.03;;;;;;;;;;5065051;28;20280;-66
2023/08/18 06:48:31;;;;;;;9.27;4.00;;;;;;;;;;5066724;28;20218;-65
2023/08/18 06:50:58;;;;;;;6.25;3.80;;;;;;;;;;5066224;28;20251;-65
2023/08/18 06:53:27;;;;;;;7.50;3.90;;;;;;;;;;5066087;28;20275;-64
2023/08/18 06:55:56;;;;;;;6.53;4.53;;;;;;;;;;5062885;28;20198;-67
2023/08/18 06:58:22;;;;;;;4.78;4.30;;;;;;;;;;5064339;28;20259;-67
2023/08/18 07:00:48;;;;;;;6.63;4.38;;;;;;;;;;5062215;28;20226;-66
2023/08/18 07:03:15;;;;;;;6.32;3.63;;;;;;;;;;5065067;28;20291;-67
2023/08/18 07:05:41;;;;;;;5.07;3.58;;;;;;;;;;5065035;28;20788;-67
2023/08/18 07:08:08;;;;;;;5.65;4.13;;;;;;;;;;5065610;28;20289;-67
2023/08/18 07:10:36;;;;;;;6.15;4.05;;;;;;;;;;5066044;28;20717;-67
2023/08/18 07:13:03;;;;;;;4.63;3.88;;;;;;;;;;5066329;28;20203;-66
2023/08/18 07:15:29;;;;;;;5.60;3.58;;;;;;;;;;5064808;28;20230;-65
2023/08/18 07:17:56;;;;;;;11.02;3.53;;;;;;;;;;5065718;28;20205;-67
2023/08/18 07:20:23;;;;;;;4.50;3.38;;;;;;;;;;5064481;28;20370;-66
2023/08/18 07:22:49;;;;;;;8.23;3.85;;;;;;;;;;5065899;28;20194;-65
2023/08/18 07:25:16;;;;;;;4.57;4.00;;;;;;;;;;5065884;28;20916;-66
2023/08/18 07:27:44;;;;;;;4.50;3.92;;;;;;;;;;5065272;28;20280;-66
2023/08/18 07:30:10;;;;;;;5.90;3.90;;;;;;;;;;5064935;28;21592;-69
2023/08/18 07:32:37;;;;;;;5.20;3.88;;;;;;;;;;5064719;28;20675;-68
2023/08/18 07:35:08;;;;;;;23.33;5.75;;;;;;;;;;5065348;28;20640;-69
2023/08/18 07:37:35;;;;;;;9.50;3.78;;;;;;;;;;5065354;28;20202;-67
2023/08/18 07:40:01;;;;;;;6.75;3.83;;;;;;;;;;5065214;28;20203;-66
2023/08/18 07:42:27;;;;;;;6.65;3.30;;;;;;;;;;5065004;28;20893;-65
2023/08/18 07:44:55;;;;;;;5.55;3.80;;;;;;;;;;5065434;28;20206;-66
2023/08/18 07:47:22;;;;;;;5.32;3.25;;;;;;;;;;5064815;28;20264;-67
2023/08/18 07:49:48;;;;;;;6.53;3.78;;;;;;;;;;5065541;28;20250;-68
2023/08/18 07:52:15;;;;;;;7.85;3.97;;;;;;;;;;5064638;28;20276;-66
2023/08/18 07:54:41;;;;;;;4.85;4.35;;;;;;;;;;5064760;28;20299;-67
2023/08/18 07:57:07;;;;;;;3.85;3.35;;;;;;;;;;5064390;28;20638;-68
2023/08/18 07:59:34;;;;;;;7.45;3.10;;;;;;;;;;5065384;28;20199;-67
2023/08/18 08:02:02;;;;;;;6.25;3.42;;;;;;;;;;5064580;28;20222;-67
2023/08/18 08:04:29;;;;;;;6.38;3.03;;;;;;;;;;5064724;28;20211;-66
2023/08/18 08:06:56;;;;;;;10.77;3.42;;;;;;;;;;5065099;28;20240;-69
2023/08/18 08:09:23;;;;;;;6.28;3.65;;;;;;;;;;5065431;28;20313;-67
2023/08/18 08:11:50;;;;;;;4.03;3.65;;;;;;;;;;5064619;28;20225;-68
2023/08/18 08:14:16;;;;;;;4.35;3.20;;;;;;;;;;5064763;28;20729;-67
2023/08/18 08:16:43;;;;;;;3.35;3.15;;;;;;;;;;5061909;28;20680;-68
2023/08/18 08:19:12;;;;;;;3.13;2.90;;;;;;;;;;5062207;28;20357;-68
2023/08/18 08:21:39;;;;;;;5.18;3.33;;;;;;;;;;5063840;28;20213;-65
2023/08/18 08:24:06;;;;;;;5.40;3.25;;;;;;;;;;5064350;28;20313;-68
2023/08/18 08:26:33;;;;;;;5.35;3.58;;;;;;;;;;5064504;28;20255;-68
2023/08/18 08:28:59;;;;;;;8.98;3.40;;;;;;;;;;5063737;28;20795;-68
2023/08/18 08:31:26;;;;;;;4.25;3.83;;;;;;;;;;5064414;28;20335;-67
2023/08/18 08:33:52;;;;;;;3.95;3.17;;;;;;;;;;5063745;28;20256;-67
2023/08/18 08:36:20;;;;;;;3.10;2.88;;;;;;;;;;5064595;28;20242;-66
2023/08/18 08:38:46;;;;;;;3.20;3.00;;;;;;;;;;5063376;28;20259;-67
2023/08/18 08:41:13;;;;;;;5.78;3.22;;;;;;;;;;5063837;28;20254;-66
2023/08/18 08:43:39;;;;;;;3.05;2.80;;;;;;;;;;5063655;28;20202;-68
2023/08/18 08:46:06;;;;;;;5.13;3.13;;;;;;;;;;5062613;28;20194;-68
2023/08/18 08:48:35;;;;;;;2.88;2.75;;;;;;;;;;5063316;28;20199;-67
2023/08/18 08:51:04;;;;;;;4.10;3.10;;;;;;;;;;5063161;28;20226;-68
2023/08/18 08:53:32;;;;;;;3.25;2.92;;;;;;;;;;5063286;28;20319;-66
2023/08/18 08:55:59;;;;;;;4.82;3.45;;;;;;;;;;5063265;28;20242;-68
2023/08/18 08:58:29;;;;;;;2.95;2.60;;;;;;;;;;5063085;28;20734;-67
2023/08/18 09:00:56;;;;;;;4.75;3.15;;;;;;;;;;5063808;28;20671;-66
2023/08/18 09:03:22;;;;;;;4.78;3.40;;;;;;;;;;5063741;28;20221;-67
2023/08/18 09:05:49;;;;;;;4.82;2.97;;;;;;;;;;5063834;28;20194;-68
2023/08/18 09:08:15;;;;;;;5.32;3.35;;;;;;;;;;5063483;28;20234;-68
2023/08/18 09:10:43;;;;;;;7.43;3.40;;;;;;;;;;5063490;28;20250;-67
2023/08/18 09:13:10;;;;;;;3.42;3.00;;;;;;;;;;5063914;28;20279;-68
2023/08/18 09:15:37;;;;;;;6.75;2.97;;;;;;;;;;5063881;28;20205;-67
2023/08/18 09:18:04;;;;;;;3.13;2.70;;;;;;;;;;5063577;28;20698;-70
2023/08/18 09:20:30;;;;;;;4.70;2.95;;;;;;;;;;5063550;28;20199;-67
2023/08/18 09:22:57;;;;;;;3.60;3.20;;;;;;;;;;5064211;28;20259;-68
2023/08/18 09:25:24;;;;;;;6.53;3.20;;;;;;;;;;5063858;28;20210;-68
2023/08/18 09:27:51;;;;;;;2.58;2.38;;;;;;;;;;5063739;28;20266;-68
2023/08/18 09:30:18;;;;;;;9.43;3.05;;;;;;;;;;5063403;28;20226;-68
2023/08/18 09:32:45;;;;;;;11.00;3.60;;;;;;;;;;5063824;28;20237;-66
2023/08/18 09:35:12;;;;;;;2.97;2.78;;;;;;;;;;5063462;28;20275;-66
2023/08/18 09:37:39;;;;;;;4.55;2.13;;;;;;;;;;5063367;28;20587;-67
2023/08/18 09:40:06;;;;;;;3.63;2.90;;;;;;;;;;5063533;28;20230;-68
2023/08/18 09:42:33;;;;;;;3.15;2.90;;;;;;;;;;5062912;28;20295;-67
2023/08/18 09:45:00;;;;;;;12.13;3.35;;;;;;;;;;5066454;28;20683;-67
2023/08/18 09:47:29;;;;;;;3.33;2.55;;;;;;;;;;5067081;28;20210;-66
2023/08/18 09:49:59;;;;;;;7.97;2.67;;;;;;;31.00;nan;95215.56;5066353;28;20759;-67
2023/08/18 09:52:28;;;;;;;7.95;2.47;;;;;;;;;;5067370;28;20241;-66
2023/08/18 09:54:56;;;;;;;13.00;2.78;;;;;;;;;;5067438;28;20194;-67
2023/08/18 09:57:29;;;;;;;4.90;2.45;;;;;;;;;;5066888;28;20244;-67
2023/08/18 09:59:57;;;;;;;3.28;3.08;;;;;;;;;;5067461;28;20269;-67
2023/08/18 10:02:29;;;;;;;6.53;3.03;;;;;;;;;;5066678;28;20668;-66
2023/08/18 10:04:55;;;;;;;3.05;2.65;;;;;;;;;;5066798;28;20681;-66
2023/08/18 10:07:23;;;;;;;2.95;2.75;;;;;;;;;;5066841;28;20297;-68
2023/08/18 10:09:49;;;;;;;3.15;2.90;;;;;;;;;;5066610;28;20688;-68
2023/08/18 10:12:16;;;;;;;11.90;3.22;;;;;;;;;;5066796;28;20287;-67
2023/08/18 10:14:43;;;;;;;3.60;2.50;;;;;;;;;;5067099;28;20226;-67
2023/08/18 10:17:10;;;;;;;4.80;2.67;;;;;;;;;;5066547;28;20226;-67
2023/08/18 10:19:51;;;;;;;5.45;2.88;;;;;;;;;;5066853;28;20315;-68
2023/08/18 10:22:18;;;;;;;6.07;2.63;;;;;;;;;;5066631;28;20675;-68
2023/08/18 10:24:46;;;;;;;4.25;2.72;;;;;;;;;;5065810;28;20280;-68
2023/08/18 10:27:13;;;;;;;3.97;2.60;;;;;;;;;;5066620;28;20207;-68
2023/08/18 10:29:42;;;;;;;6.07;3.10;;;;;;;;;;5066765;28;20315;-68
2023/08/18 10:32:09;;;;;;;3.08;2.42;;;;;;;;;;5066404;28;20343;-69
2023/08/18 10:34:36;;;;;;;4.60;2.60;;;;;;;;;;5067153;28;20634;-68
2023/08/18 10:37:04;;;;;;;6.10;2.75;;;;;;;;;;5066301;28;20291;-66
2023/08/18 10:39:36;;;;;;;5.80;2.70;;;;;;;;;;5065691;28;20283;-67
2023/08/18 10:42:07;;;;;;;9.35;3.60;;;;;;;;;;5066006;28;20291;-66
2023/08/18 10:44:33;;;;;;;7.35;2.50;;;;;;;;;;5066372;28;20277;-66
2023/08/18 10:47:02;;;;;;;5.00;3.25;;;;;;;;;;5065553;28;20205;-68
2023/08/18 10:49:28;;;;;;;6.53;2.70;;;;;;;;;;5065587;28;20222;-67
2023/08/18 10:51:55;;;;;;;8.38;3.90;;;;;;;;;;5064929;28;20788;-66
2023/08/18 10:54:24;;;;;;;4.70;2.60;;;;;;;;;;5065608;28;20202;-70
2023/08/18 10:56:50;;;;;;;5.70;2.85;;;;;;;;;;5065419;28;20206;-68
2023/08/18 10:59:18;;;;;;;5.45;3.90;;;;;;;;;;5066206;28;20214;-67
2023/08/18 11:01:44;;;;;;;4.30;2.67;;;;;;;;;;5065664;28;20206;-68
2023/08/18 11:04:11;;;;;;;3.63;2.80;;;;;;;;;;5066500;28;20205;-67
2023/08/18 11:06:37;;;;;;;3.83;3.50;;;;;;;;;;5066830;28;20218;-68
2023/08/18 11:09:04;;;;;;;4.30;3.42;;;;;;;;;;5065393;28;20240;-67
2023/08/18 11:11:32;;;;;;;4.47;3.17;;;;;;;;;;5064375;28;20695;-67
2023/08/18 11:13:58;;;;;;;4.45;3.20;;;;;;;;;;5065165;28;20233;-66
2023/08/18 11:16:25;;;;;;;7.68;3.58;;;;;;;;;;5065411;28;20242;-68
2023/08/18 11:18:52;;;;;;;7.80;2.90;;;;;;;;;;5065240;28;20688;-67
2023/08/18 11:21:18;;;;;;;4.25;3.20;;;;;;;;;;5066215;28;21377;-68
2023/08/18 11:23:45;;;;;;;3.72;3.35;;;;;;;;;;5064881;28;20688;-66
2023/08/18 11:26:11;;;;;;;4.32;3.28;;;;;;;;;;5065767;28;20230;-68
2023/08/18 11:28:39;;;;;;;3.45;3.03;;;;;;;;;;5065323;28;20226;-68
2023/08/18 11:31:08;;;;;;;3.70;3.33;;;;;;;;;;5065892;28;20262;-68
2023/08/18 11:33:34;;;;;;;6.60;3.78;;;;;;;;;;5064723;28;20970;-68
2023/08/18 11:36:01;;;;;;;4.38;3.55;;;;;;;;;;5064426;28;20234;-67
2023/08/18 11:38:27;;;;;;;2.95;2.75;;;;;;;;;;5064935;28;20260;-68
2023/08/18 11:40:54;;;;;;;3.20;2.85;;;;;;;;;;5065344;28;20195;-69
2023/08/18 11:43:21;;;;;;;3.88;2.90;;;;;;;;;;5064122;28;20311;-68
2023/08/18 11:45:49;;;;;;;4.55;3.15;;;;;;;;;;5065459;28;20207;-70
2023/08/18 11:48:18;;;;;;;4.03;3.08;;;;;;;;;;5064882;28;20249;-68
2023/08/18 11:50:44;;;;;;;8.35;3.10;;;;;;;;;;5065647;28;20225;-67
2023/08/18 11:53:12;;;;;;;4.38;3.25;;;;;;;;;;5064108;28;20222;-69
2023/08/18 11:55:40;;;;;;;3.70;3.40;;;;;;;;;;5065319;28;20194;-68
2023/08/18 11:58:10;;;;;;;3.13;2.83;;;;;;;;;;5064878;28;20612;-68
2023/08/18 12:00:37;;;;;;;3.35;2.97;;;;;;;;;;5065804;28;20206;-66
2023/08/18 12:03:05;;;;;;;10.90;3.00;;;;;;;;;;5065740;28;20240;-67
2023/08/18 12:05:32;;;;;;;3.25;2.45;;;;;;;;;;5068062;28;20259;-67
2023/08/18 12:07:59;;;;;;;6.53;2.75;;;;;;;;;;5065933;28;20661;-67
2023/08/18 12:10:26;;;;;;;4.05;3.10;;;;;;;;;;5066409;28;20819;-68
2023/08/18 12:12:53;;;;;;;4.15;2.88;;;;;;;;;;5065434;28;20206;-68
2023/08/18 12:15:20;;;;;;;3.53;3.22;;;;;;;;;;5065955;28;20293;-66
2023/08/18 12:17:46;;;;;;;6.18;2.67;;;;;;;;;;5064606;28;20255;-68
2023/08/18 12:20:14;;;;;;;6.30;2.80;;;;;;;;;;5064401;28;20202;-69
2023/08/18 12:22:41;;;;;;;5.07;3.17;;;;;;;;;;5063925;28;20632;-68
2023/08/18 12:25:09;;;;;;;4.18;2.67;;;;;;;;;;5064419;28;20324;-67
2023/08/18 12:27:35;;;;;;;7.22;2.78;;;;;;;;;;5064608;28;20696;-68
2023/08/18 12:30:03;;;;;;;4.22;2.65;;;;;;;;;;5064255;28;20275;-67
2023/08/18 12:32:32;;;;;;;2.80;2.60;;;;;;;;;;5065495;28;20259;-67
2023/08/18 12:34:58;;;;;;;3.58;2.70;;;;;;;;;;5064871;28;20688;-68
2023/08/18 12:37:26;;;;;;;3.40;3.13;;;;;;;;;;5065345;28;20218;-67
2023/08/18 12:39:53;;;;;;;3.75;3.22;;;;;;;;;;5064951;28;20205;-66
2023/08/18 12:42:20;;;;;;;3.45;3.15;;;;;;;;;;5066170;28;21314;-67
2023/08/18 12:44:47;;;;;;;6.70;3.42;;;;;;;;;;5064613;28;20199;-67
2023/08/18 12:47:14;;;;;;;12.43;3.47;;;;;;;;;;5064811;28;20210;-68
2023/08/18 12:49:40;;;;;;;6.75;3.70;;;;;;;;;;5063927;28;20537;-67
2023/08/18 12:52:06;;;;;;;4.45;4.05;;;;;;;;;;5063579;28;20796;-66
2023/08/18 12:54:34;;;;;;;9.40;4.03;;;;;;;;;;5064159;28;20238;-68
2023/08/18 12:57:01;;;;;;;6.32;4.50;;;;;;;;;;5064237;28;20256;-67
2023/08/18 12:59:27;;;;;;;6.90;4.30;;;;;;;;;;5064236;28;20210;-68
2023/08/18 13:01:53;;;;;;;4.47;4.13;;;;;;;;;;5063871;28;20250;-66
2023/08/18 13:04:20;;;;;;;4.57;4.28;;;;;;;;;;5063721;28;20199;-68
2023/08/18 13:06:46;;;;;;;5.68;3.80;;;;;;;;;;5064201;28;20230;-66
2023/08/18 13:09:13;;;;;;;7.90;4.00;;;;;;;;;;5063921;28;20664;-67
2023/08/18 13:11:41;;;;;;;9.65;4.50;;;;;;;;;;5063805;28;20249;-68
2023/08/18 13:14:07;;;;;;;4.15;3.85;;;;;;;;;;5063394;28;20206;-68
2023/08/18 13:16:34;;;;;;;7.57;4.15;;;;;;;;;;5063822;28;20204;-67
2023/08/18 13:19:00;;;;;;;4.90;4.43;;;;;;;;;;5062416;28;20259;-68
2023/08/18 13:21:27;;;;;;;7.25;4.03;;;;;;;;;;5063409;28;20234;-68
2023/08/18 13:23:55;;;;;;;3.85;3.50;;;;;;;;;;5063316;28;20635;-68
2023/08/18 13:26:21;;;;;;;4.35;3.88;;;;;;;;;;5062961;28;20295;-67
2023/08/18 13:28:49;;;;;;;7.97;4.18;;;;;;;;;;5063455;28;20202;-67
2023/08/18 13:31:16;;;;;;;6.82;3.95;;;;;;;;;;5063766;28;20218;-68
2023/08/18 13:33:42;;;;;;;7.50;4.75;;;;;;;;;;5063228;28;20199;-67
2023/08/18 13:36:09;;;;;;;4.60;3.92;;;;;;;;;;5063827;28;20295;-67
2023/08/18 13:38:35;;;;;;;5.45;3.50;;;;;;;;;;5062754;28;20225;-68
2023/08/18 13:41:02;;;;;;;10.13;4.95;;;;;;;;;;5063173;28;20209;-68
2023/08/18 13:43:28;;;;;;;4.50;3.92;;;;;;;;;;5063727;28;20254;-67
2023/08/18 13:45:57;;;;;;;6.50;3.88;;;;;;;;;;5063455;28;20638;-66
2023/08/18 13:48:23;;;;;;;4.85;3.90;;;;;;;;;;5063001;28;20723;-68
2023/08/18 13:50:50;;;;;;;4.07;3.60;;;;;;;;;;5063400;28;20250;-68
2023/08/18 13:53:16;;;;;;;4.88;4.13;;;;;;;;;;5063573;28;20254;-67
2023/08/18 13:55:43;;;;;;;4.40;4.00;;;;;;;;;;5064095;28;20226;-67
2023/08/18 13:58:09;;;;;;;7.30;4.10;;;;;;;;;;5062863;28;20763;-69
2023/08/18 14:00:36;;;;;;;7.93;4.18;;;;;;;;;;5063887;28;20198;-66
2023/08/18 14:03:04;;;;;;;6.82;4.20;;;;;;;;;;5062961;28;20230;-67
2023/08/18 14:05:31;;;;;;;5.25;4.05;;;;;;;;;;5063275;28;20229;-67
2023/08/18 14:07:57;;;;;;;3.85;3.63;;;;;;;;;;5063058;28;20253;-68
2023/08/18 14:10:24;;;;;;;4.90;4.18;;;;;;;;;;5063723;28;20230;-66
2023/08/18 14:12:50;;;;;;;5.15;4.53;;;;;;;;;;5063444;28;20642;-68
2023/08/18 14:15:17;;;;;;;4.60;4.18;;;;;;;;;;5064073;28;20203;-67
2023/08/18 14:17:44;;;;;;;5.38;3.65;;;;;;;;;;5062724;28;20199;-68
2023/08/18 14:20:13;;;;;;;4.90;4.03;;;;;;;;;;5063297;28;20206;-67
2023/08/18 14:22:40;;;;;;;5.57;4.25;;;;;;;;;;5062609;28;20206;-68
2023/08/18 14:25:07;;;;;;;5.88;4.13;;;;;;;;;;5063460;28;20195;-67
2023/08/18 14:27:33;;;;;;;8.20;3.55;;;;;;;;;;5062992;28;20272;-67
2023/08/18 14:30:00;;;;;;;5.40;3.55;;;;;;;;;;5065062;28;20711;-67
2023/08/18 14:32:26;;;;;;;4.25;3.92;;;;;;;;;;5065725;28;20723;-67
2023/08/18 14:34:55;;;;;;;4.38;3.90;;;;;;;;;;5066156;28;20297;-66
2023/08/18 14:37:23;;;;;;;5.45;3.70;;;;;;;;;;5067374;28;20209;-67
2023/08/18 14:39:50;;;;;;;3.78;3.28;;;;;;;;;;5067187;28;20202;-66